ケアンズ の空港の天気 - METARとTAF

ケアンズ国際空港 ( YBCS / CNS ) - オーストラリア クイーンズランド州ケアンズ
飛行場実況気象(Metar)
観測時間11/20 19:00 AEST (11/20 09:00 UTC)
風向・風速東 3m/s
視程10km以上
天気現象
少しの雲 雲底高度 760m
全天の8割程度の雲 雲底高度 1680m
気温26℃
湿度70%
気圧1011hPa
METARYBCS 200900Z 08006KT 9999 FEW025 BKN055 26/20 Q1011
過去の天気等 Google飛行場航空写真 Wunderground天気予報

過去48時間のMETAR

飛行場予報(TAF)
発表時間: 11/20 15:13 AEST (11/20 05:13 UTC)
予報対象時間: 20日16時 AEST ~ 21日16時 AEST
風向・風速東 6m/s
視程10km以上
少しの雲 雲底高度 850m
全天の8割程度の雲 雲底高度 1,370m
20日18時 AEST から
風向・風速南東 4m/s
視程10km以上
天気現象弱いしゅう雨
全天の4割程度の雲 雲底高度 760m
全天の8割程度の雲 雲底高度 1,220m
21日10時 AEST から
風向・風速東 6m/s
視程10km以上
全天の4割程度の雲 雲底高度 850m
全天の4割程度の雲 雲底高度 1,370m
TAF AMD YBCS 200513Z 2006/2106 08012KT 9999 FEW028 BKN045
FM200800 14007KT 9999 -SHRA SCT025 BKN040
FM210000 09012KT 9999 SCT028 SCT045 INTER 2014/2024 3000 SHRA BKN018